Aeroporto :
LOGIN :

Iscrizione | Disclaimer

   EN    FR    IT 

 










Sommario :    VFR   VFR Marginale   IFR   IFR Intensivo   IFR Molto Intensivo
Visibilità : 
Base nubi : 
>= 8 km
>= 3000ft
5 / 8 km
1000 / 3000 ft
1500m / 5 km
500 / 1000 ft
800 / 1500m
200 / 500 ft
< 800m
< 200 ft
Simboli :   Temporali  Nebbia  Neve Forte  Precipitazioni Forti  Vento > 20 kt
SIGMETs :   Varie  Temporali  Ghiacco  Turbolenza  Onda orograficha  Ceneri Vulcaniche






- Altitudine del aeroporto : 13 ft
- Codice IATA : GOA


LIMJ - Genoa Cristoforo Colombo

ULTIMO METAR :
  • 180220Z 06005KT 010V090 9999 BKN016 BKN040 17/15 Q1018

METARs OBSOLETI :
  • 180150Z 04004KT 360V110 9999 BKN016 BKN040 17/15 Q1018
  • 180120Z 18008KT 150V210 9999 BKN016 BKN027 19/11 Q1018
  • 180050Z 14010KT 9999 BKN016 BKN027 19/16 Q1018
  • 180020Z 14012KT 9999 -DZ BKN016 BKN027 19/15 Q1018
  • 172350Z 15008KT 120V200 9999 -DZ BKN016 BKN027 18/14 Q1018
  • 172320Z 13016KT 9999 BKN016 BKN027 19/15 Q1018

TAF TAF LIMJ
Valido dal 18 a 00 ore il 19 a 00 ore UTC


172300Z 1800/1824 15010KT 9999 SCT015 BKN025
TEMPO 1806/1824 RA



MetMap, La meteo Aeronautica in un colpo d'occhio ! - Copyright ORBIFLY Dicembre 2007 - Disclaimer

ORBIFLY MET'MAP TEAM :

Programmazione e sviluppo : Alexandra Zaïnal
Concezione e sviluppo : Baudouin d'Aumeries
Co-Programmazione e sviluppo : Marc-Olivier Méhu
Supporto tecnico e logistico : Manuel Goepfert
Aiuto per la traduzione : Arnaldo La Scala

Contatto : metmap@orbifly.com




FONTI E CREDITI :

   NOAA